Time;durP1;ratioP1;P1;durP2;ratioP2;P2;SDS_P1;SDS_P2;PMS_P1;PMS_P2;Temp;Humidity;BMP_temperature;BMP_pressure;BME280_temperature;BME280_humidity;BME280_pressure;Samples;Min_cycle;Max_cycle;Signal;HPM_P1;HPM_P2
2022/07/21 00:00:25;;;;;;;21.05;10.80;;;;;;;19.76;81.20;101574.66;5019167;28;20033;-75
2022/07/21 00:02:50;;;;;;;22.05;10.60;;;;;;;19.71;81.30;101567.78;5031353;28;20036;-75
2022/07/21 00:05:17;;;;;;;20.85;10.43;;;;;;;19.66;81.29;101561.06;5027356;28;20116;-75
2022/07/21 00:07:42;;;;;;;22.92;11.30;;;;;;;19.66;81.39;101567.38;5030658;28;20070;-75
2022/07/21 00:10:08;;;;;;;19.60;9.70;;;;;;;19.66;81.17;101575.56;5032502;28;20029;-75
2022/07/21 00:12:33;;;;;;;20.10;10.43;;;;;;;19.67;81.03;101579.16;5031486;28;20063;-75
2022/07/21 00:14:59;;;;;;;21.38;10.63;;;;;;;19.66;81.31;101577.44;5033360;28;20025;-75
2022/07/21 00:17:24;;;;;;;22.92;10.60;;;;;;;19.62;81.04;101570.56;5041089;28;20025;-75
2022/07/21 00:19:49;;;;;;;21.65;10.25;;;;;;;19.58;81.12;101563.69;5025875;28;20036;-75
2022/07/21 00:22:15;;;;;;;20.77;10.30;;;;;;;19.53;81.57;101564.16;5012156;28;20104;-75
2022/07/21 00:24:40;;;;;;;21.48;10.68;;;;;;;19.50;81.48;101573.53;5012911;28;20030;-75
2022/07/21 00:27:05;;;;;;;21.17;10.18;;;;;;;19.48;81.92;101574.69;5013421;28;20069;-75
2022/07/21 00:29:31;;;;;;;22.02;10.90;;;;;;;19.46;81.66;101577.56;5027911;28;20053;-75
2022/07/21 00:31:56;;;;;;;21.65;9.95;;;;;;;19.43;81.75;101571.56;5017691;28;20037;-75
2022/07/21 00:34:21;;;;;;;22.15;10.48;;;;;;;19.41;81.75;101568.13;5022100;28;20029;-75
2022/07/21 00:36:47;;;;;;;21.67;11.18;;;;;;;19.39;82.12;101574.59;5023811;28;20021;-75
2022/07/21 00:39:12;;;;;;;21.42;9.48;;;;;;;19.35;81.91;101572.31;5031301;28;20025;-75
2022/07/21 00:41:37;;;;;;;21.33;10.43;;;;;;;19.35;82.15;101575.06;5031566;28;20049;-75
2022/07/21 00:44:04;;;;;;;22.52;11.25;;;;;;;19.33;82.31;101583.38;5032770;28;20528;-75
2022/07/21 00:46:30;;;;;;;21.20;9.80;;;;;;;19.33;82.21;101575.22;5031612;28;20029;-75
2022/07/21 00:48:55;;;;;;;21.35;10.25;;;;;;;19.32;82.39;101578.09;5030579;28;20060;-75
2022/07/21 00:51:20;;;;;;;20.70;10.27;;;;;;;19.30;82.62;101578.25;5021115;28;20060;-75
2022/07/21 00:53:46;;;;;;;24.50;12.15;;;;;;;19.28;82.43;101579.41;5031746;28;20025;-75
2022/07/21 00:56:11;;;;;;;20.90;10.05;;;;;;;19.26;82.87;101579.53;5031279;28;20397;-75
2022/07/21 00:58:37;;;;;;;22.27;10.45;;;;;;;19.24;82.76;101577.97;5029524;28;20474;-75
2022/07/21 01:01:03;;;;;;;20.98;10.77;;;;;;;19.23;82.99;101568.09;5032150;28;20029;-75
2022/07/21 01:03:29;;;;;;;21.85;11.15;;;;;;;19.23;82.96;101566.22;5032247;28;20078;-75
2022/07/21 01:05:54;;;;;;;21.88;10.73;;;;;;;19.20;82.81;101561.94;5031131;28;20025;-75
2022/07/21 01:08:19;;;;;;;21.13;10.48;;;;;;;19.19;82.91;101560.22;5034898;28;20029;-75
2022/07/21 01:10:44;;;;;;;21.85;10.70;;;;;;;19.17;83.17;101556.78;5031974;28;20021;-75
2022/07/21 01:13:10;;;;;;;21.67;10.13;;;;;;;19.18;83.00;101547.63;5031142;28;20072;-75
2022/07/21 01:15:36;;;;;;;21.15;10.95;;;;;;;19.17;83.24;101551.34;5032109;28;20021;-75
2022/07/21 01:18:01;;;;;;;21.08;10.43;;;;;;;19.13;83.51;101538.19;5029853;28;20124;-75
2022/07/21 01:20:32;;;;;;;21.92;11.10;;;;;;;19.08;83.32;101538.63;5019009;28;20025;-75
2022/07/21 01:22:57;;;;;;;21.70;10.93;;;;;;;19.04;83.75;101543.50;5023003;28;20025;-75
2022/07/21 01:25:23;;;;;;;22.02;11.65;;;;;;;19.06;83.64;101542.50;5050830;28;20535;-75
2022/07/21 01:27:48;;;;;;;21.77;11.25;;;;;;;19.03;83.75;101540.94;5030372;28;20034;-75
2022/07/21 01:30:14;;;;;;;22.92;11.43;;;;;;;19.02;83.74;101544.69;5032058;28;20017;-75
2022/07/21 01:32:40;;;;;;;21.88;11.85;;;;;;;19.00;83.96;101543.97;5024499;28;20060;-75
2022/07/21 01:35:09;;;;;;;23.58;12.50;;;;;;;18.97;84.29;101544.28;5030692;28;20064;-75
2022/07/21 01:37:38;;;;;;;22.30;10.90;;;;;;;18.96;84.44;101554.31;5030529;28;20087;-75
2022/07/21 01:42:48;;;;;;;22.42;11.18;;;;;;;18.93;84.62;101549.19;5024580;28;20479;-75
2022/07/21 01:45:13;;;;;;;23.67;12.15;;;;;;;18.91;84.84;101547.59;5017999;28;20026;-75
2022/07/21 01:47:40;;;;;;;21.45;11.15;;;;;;;18.91;84.98;101544.88;5027745;28;20044;-75
2022/07/21 01:50:06;;;;;;;23.02;12.63;;;;;;;18.89;84.96;101547.75;5022795;28;20030;-75
2022/07/21 01:52:31;;;;;;;22.35;11.85;;;;;;;18.89;85.09;101545.03;5015916;28;20040;-75
2022/07/21 01:54:57;;;;;;;24.75;10.93;;;;;;;18.89;85.25;101557.78;5012066;28;20476;-75
2022/07/21 01:57:22;;;;;;;22.45;11.48;;;;;;;18.89;84.92;101552.34;5028962;28;20064;-75
2022/07/21 01:59:47;;;;;;;22.92;12.70;;;;;;;18.87;85.12;101555.22;5032014;28;20021;-75
2022/07/21 02:02:12;;;;;;;22.48;11.82;;;;;;;18.87;85.26;101557.94;5031463;28;20465;-75
2022/07/21 02:04:38;;;;;;;23.65;12.27;;;;;;;18.86;85.43;101546.19;5033216;28;20029;-75
2022/07/21 02:07:03;;;;;;;22.88;12.15;;;;;;;18.85;85.72;101543.59;5026679;28;20092;-75
2022/07/21 02:09:29;;;;;;;26.02;12.65;;;;;;;18.85;85.60;101540.88;5015556;28;20032;-75
2022/07/21 02:11:54;;;;;;;24.85;12.30;;;;;;;18.87;85.60;101536.13;5031343;28;20029;-75
2022/07/21 02:14:20;;;;;;;23.60;11.75;;;;;;;18.86;85.34;101548.06;5036606;28;20534;-75
2022/07/21 02:16:45;;;;;;;23.17;12.60;;;;;;;18.87;85.55;101544.31;5047381;28;20060;-75
2022/07/21 02:19:11;;;;;;;23.15;12.45;;;;;;;18.83;86.03;101541.00;5033741;28;20021;-75
2022/07/21 02:21:36;;;;;;;23.05;12.07;;;;;;;18.85;85.64;101543.59;5018362;28;20042;-75
2022/07/21 02:24:01;;;;;;;23.25;12.35;;;;;;;18.82;85.99;101550.19;5015327;28;20099;-75
2022/07/21 02:26:27;;;;;;;25.10;12.77;;;;;;;18.81;86.09;101543.00;5049775;28;20555;-75
2022/07/21 02:28:52;;;;;;;22.63;13.07;;;;;;;18.84;85.87;101531.84;5034876;28;20032;-75
2022/07/21 02:31:17;;;;;;;25.13;13.43;;;;;;;18.83;86.06;101532.00;5029326;28;20452;-75
2022/07/21 02:33:42;;;;;;;23.65;13.30;;;;;;;18.79;85.85;101536.88;5025355;28;20038;-75
2022/07/21 02:36:08;;;;;;;25.42;13.50;;;;;;;18.81;85.91;101532.13;5020289;28;20060;-75
2022/07/21 02:38:34;;;;;;;23.73;12.50;;;;;;;18.79;85.95;101536.03;5032694;28;20055;-75
2022/07/21 02:40:59;;;;;;;24.92;12.82;;;;;;;18.78;85.99;101532.41;5017204;28;20018;-75
2022/07/21 02:43:24;;;;;;;24.45;12.30;;;;;;;18.78;86.15;101534.28;5014791;28;20052;-75
2022/07/21 02:45:49;;;;;;;22.83;13.00;;;;;;;18.76;85.97;101534.44;5015326;28;20389;-75
2022/07/21 02:48:15;;;;;;;24.27;13.20;;;;;;;18.78;86.21;101540.59;5028767;28;20056;-75
2022/07/21 02:50:42;;;;;;;25.10;13.13;;;;;;;18.78;86.37;101528.84;5031284;28;20041;-75
2022/07/21 02:53:12;;;;;;;24.42;15.15;;;;;;;18.77;86.26;101516.22;5034580;28;20079;-75
2022/07/21 02:55:37;;;;;;;24.00;13.15;;;;;;;18.77;86.43;101529.84;5034529;28;20083;-75
2022/07/21 02:58:10;;;;;;;24.20;13.70;;;;;;;18.77;86.40;101527.13;5031470;28;20057;-75
2022/07/21 03:00:45;;;;;;;24.92;14.80;;;;;;;18.76;86.24;101528.16;5034617;28;20053;-75
2022/07/21 03:03:10;;;;;;;25.10;14.75;;;;;;;18.75;86.48;101530.00;5030745;28;20552;-75
2022/07/21 03:05:36;;;;;;;24.90;14.05;;;;;;;18.78;86.48;101532.41;5014561;28;20026;-75
2022/07/21 03:08:03;;;;;;;24.38;14.77;;;;;;;18.78;86.57;101529.69;5027000;28;20041;-75
2022/07/21 03:10:28;;;;;;;26.35;14.27;;;;;;;18.76;86.32;101526.28;5034088;28;20033;-75
2022/07/21 03:12:54;;;;;;;28.08;14.35;;;;;;;18.76;86.46;101526.28;5033743;28;20389;-75
2022/07/21 03:15:19;;;;;;;26.85;15.38;;;;;;;18.78;86.30;101526.97;5033278;28;20067;-75
2022/07/21 03:17:45;;;;;;;26.63;14.85;;;;;;;18.78;86.26;101518.81;5031896;28;20029;-75
2022/07/21 03:20:11;;;;;;;26.90;15.23;;;;;;;18.78;86.25;101524.25;5022229;28;20032;-75
2022/07/21 03:22:36;;;;;;;26.98;14.50;;;;;;;18.78;86.25;101516.06;5032747;28;20034;-75
2022/07/21 03:25:04;;;;;;;25.02;13.85;;;;;;;18.78;86.13;101513.34;5037608;28;20013;-75
2022/07/21 03:27:29;;;;;;;26.17;14.77;;;;;;;18.77;86.12;101518.94;5032798;28;20061;-75
2022/07/21 03:29:54;;;;;;;24.58;13.65;;;;;;;18.78;86.06;101516.06;5033630;28;20068;-75
2022/07/21 03:32:20;;;;;;;29.33;14.15;;;;;;;18.79;86.31;101525.97;5033555;28;20021;-75
2022/07/21 03:34:45;;;;;;;26.23;14.85;;;;;;;18.78;85.99;101518.81;5028295;28;20038;-75
2022/07/21 03:37:11;;;;;;;24.75;12.75;;;;;;;18.79;85.97;101523.25;5013943;28;20026;-75
2022/07/21 03:39:37;;;;;;;26.70;14.52;;;;;;;18.79;86.12;101525.97;5028481;28;20077;-75
2022/07/21 03:42:02;;;;;;;25.95;14.15;;;;;;;18.78;86.03;101528.84;5029649;28;20030;-75
2022/07/21 03:44:28;;;;;;;23.65;13.65;;;;;;;18.78;86.04;101524.25;5030558;28;20033;-75
2022/07/21 03:46:53;;;;;;;24.73;13.82;;;;;;;18.78;86.09;101526.97;5028279;28;20628;-75
2022/07/21 03:49:18;;;;;;;25.63;14.18;;;;;;;18.78;86.00;101528.84;5039935;28;20037;-75
2022/07/21 03:51:43;;;;;;;25.33;13.43;;;;;;;18.77;86.14;101533.44;5012614;28;20056;-75
2022/07/21 03:54:09;;;;;;;25.73;14.20;;;;;;;18.79;86.28;101531.41;5028514;28;20397;-75
2022/07/21 03:56:34;;;;;;;24.38;12.85;;;;;;;18.80;85.99;101530.41;5031265;28;20025;-75
2022/07/21 03:58:59;;;;;;;24.20;11.82;;;;;;;18.80;85.95;101533.16;5032105;28;20029;-75
2022/07/21 04:01:24;;;;;;;25.58;13.82;;;;;;;18.82;86.25;101530.28;5033039;28;20576;-75
2022/07/21 04:03:50;;;;;;;26.10;13.68;;;;;;;18.82;85.49;101535.72;5031266;28;20029;-75
2022/07/21 04:06:15;;;;;;;24.52;12.75;;;;;;;18.81;85.93;101543.00;5029527;28;20483;-75
2022/07/21 04:08:40;;;;;;;24.58;13.23;;;;;;;18.80;85.65;101549.47;5049489;28;20044;-75
2022/07/21 04:11:06;;;;;;;24.60;12.43;;;;;;;18.79;85.51;101553.22;5032478;28;20061;-75
2022/07/21 04:13:31;;;;;;;23.27;12.30;;;;;;;18.81;85.54;101555.78;5032149;28;20040;-75
2022/07/21 04:15:56;;;;;;;23.52;12.18;;;;;;;18.81;86.09;101559.34;5035736;28;20036;-75
2022/07/21 04:18:22;;;;;;;25.85;12.68;;;;;;;18.81;85.89;101547.59;5031260;28;20428;-75
2022/07/21 04:20:47;;;;;;;23.40;12.20;;;;;;;18.82;86.22;101546.59;5030714;28;20539;-75
2022/07/21 04:23:12;;;;;;;23.83;13.10;;;;;;;18.80;86.36;101544.03;5030156;28;20477;-75
2022/07/21 04:25:38;;;;;;;23.27;12.43;;;;;;;18.80;86.75;101549.47;5032061;28;20103;-75
2022/07/21 04:28:05;;;;;;;26.73;12.60;;;;;;;18.80;86.52;101540.44;5031583;28;20041;-75
2022/07/21 04:30:31;;;;;;;24.08;12.20;;;;;;;18.81;86.91;101539.44;5014830;28;20064;-75
2022/07/21 04:32:56;;;;;;;23.27;11.65;;;;;;;18.76;86.60;101542.63;5032694;28;20029;-75
2022/07/21 04:35:21;;;;;;;22.05;11.77;;;;;;;18.76;86.58;101536.31;5032504;28;20037;-75
2022/07/21 04:37:47;;;;;;;24.65;13.23;;;;;;;18.78;87.05;101535.13;5032621;28;20036;-75
2022/07/21 04:40:14;;;;;;;25.17;12.05;;;;;;;18.76;86.67;101537.16;5030040;28;20028;-75
2022/07/21 04:42:39;;;;;;;23.52;11.35;;;;;;;18.77;86.54;101536.16;5028954;28;20029;-75
2022/07/21 04:45:07;;;;;;;25.45;12.35;;;;;;;18.74;86.62;101536.47;5013079;28;20026;-75
2022/07/21 04:47:32;;;;;;;23.85;12.40;;;;;;;18.76;87.00;101539.03;5012848;28;20068;-75
2022/07/21 04:49:57;;;;;;;23.98;12.20;;;;;;;18.76;87.82;101537.16;5018517;28;20439;-75
2022/07/21 04:52:23;;;;;;;23.92;12.02;;;;;;;18.73;88.51;101548.38;5020347;28;20509;-75
2022/07/21 04:54:48;;;;;;;26.13;11.55;;;;;;;18.71;88.15;101547.63;5041331;28;20124;-75
2022/07/21 04:57:13;;;;;;;25.10;12.30;;;;;;;18.68;88.14;101546.09;5028581;28;20029;-75
2022/07/21 04:59:39;;;;;;;23.67;11.45;;;;;;;18.67;89.11;101535.34;5022951;28;20079;-75
2022/07/21 05:02:06;;;;;;;25.33;12.50;;;;;;;18.64;89.17;101547.38;5020904;28;20030;-75
2022/07/21 05:04:32;;;;;;;24.30;12.65;;;;;;;18.66;89.51;101548.09;5032096;28;20073;-75
2022/07/21 05:06:57;;;;;;;26.50;12.18;;;;;;;18.64;89.00;101544.66;5033963;28;20029;-75
2022/07/21 05:09:23;;;;;;;22.63;12.13;;;;;;;18.63;89.15;101547.53;5030076;28;20083;-75
2022/07/21 05:11:48;;;;;;;25.33;12.50;;;;;;;18.63;88.83;101552.97;5031414;28;20083;-75
2022/07/21 05:14:13;;;;;;;25.58;11.82;;;;;;;18.62;88.73;101556.72;5029827;28;20100;-75
2022/07/21 05:16:39;;;;;;;25.35;12.90;;;;;;;18.65;89.47;101545.50;5026853;28;20061;-75
2022/07/21 05:19:04;;;;;;;23.63;12.50;;;;;;;18.63;89.33;101544.81;5029583;28;20404;-75
2022/07/21 05:21:29;;;;;;;23.30;11.07;;;;;;;18.62;88.99;101545.81;5021899;28;20030;-75
2022/07/21 05:23:55;;;;;;;23.13;12.10;;;;;;;18.59;88.71;101540.66;5032847;28;20030;-75
2022/07/21 05:26:20;;;;;;;23.65;11.18;;;;;;;18.59;88.89;101544.25;5028635;28;20048;-75
2022/07/21 05:28:46;;;;;;;22.58;11.68;;;;;;;18.61;89.83;101538.66;5028263;28;20030;-75
2022/07/21 05:31:11;;;;;;;25.75;13.13;;;;;;;18.63;89.20;101539.38;5038648;28;20036;-75
2022/07/21 05:33:36;;;;;;;23.10;11.55;;;;;;;18.61;88.77;101534.06;5050681;28;20048;-75
2022/07/21 05:36:03;;;;;;;23.20;11.77;;;;;;;18.61;89.31;101528.63;5029317;28;20039;-75
2022/07/21 05:38:29;;;;;;;23.70;11.07;;;;;;;18.62;89.07;101535.78;5030782;28;20032;-75
2022/07/21 05:40:54;;;;;;;24.13;11.98;;;;;;;18.65;89.70;101534.63;5035839;28;20026;-75
2022/07/21 05:43:20;;;;;;;25.63;11.98;;;;;;;18.65;88.11;101535.50;5035777;28;20056;-75
2022/07/21 05:45:45;;;;;;;25.08;12.23;;;;;;;18.63;87.73;101528.47;5033762;28;20025;-75
2022/07/21 05:48:10;;;;;;;22.55;11.43;;;;;;;18.65;88.14;101526.47;5035512;28;20040;-75
2022/07/21 05:50:36;;;;;;;24.88;11.70;;;;;;;18.64;88.43;101527.47;5022553;28;20037;-75
2022/07/21 05:53:01;;;;;;;24.67;12.15;;;;;;;18.66;88.80;101520.84;5022735;28;20090;-73
2022/07/21 05:55:26;;;;;;;23.30;11.70;;;;;;;18.71;88.66;101530.44;5022744;28;20025;-73
2022/07/21 05:57:52;;;;;;;24.45;12.82;;;;;;;18.73;88.14;101532.03;5024566;28;20396;-73
2022/07/21 06:00:17;;;;;;;25.52;12.52;;;;;;;18.76;87.94;101536.31;5023779;28;20029;-73
2022/07/21 06:02:46;;;;;;;28.15;13.82;;;;;;;18.79;87.32;101539.59;5022139;28;20038;-73
2022/07/21 06:05:11;;;;;;;27.30;13.10;;;;;;;18.84;88.08;101534.56;5021868;28;20579;-73
2022/07/21 06:07:38;;;;;;;26.65;13.90;;;;;;;18.85;87.99;101544.44;5020250;28;20091;-73
2022/07/21 06:10:04;;;;;;;24.88;13.98;;;;;;;18.88;87.31;101545.19;5020827;28;20181;-73
2022/07/21 06:12:29;;;;;;;29.27;16.00;;;;;;;18.93;88.15;101542.84;5023474;28;20474;-73
2022/07/21 06:14:55;;;;;;;30.23;15.65;;;;;;;18.99;88.28;101532.22;5024282;28;20078;-72
2022/07/21 06:17:21;;;;;;;30.05;15.43;;;;;;;19.06;87.77;101532.47;5022301;28;20037;-72
2022/07/21 06:19:46;;;;;;;29.58;15.40;;;;;;;19.12;87.48;101531.00;5036481;28;20154;-72
2022/07/21 06:22:11;;;;;;;29.05;16.85;;;;;;;19.23;87.76;101538.13;5021296;28;20135;-72
2022/07/21 06:24:36;;;;;;;29.73;16.95;;;;;;;19.31;87.25;101538.19;5021586;28;20558;-73
2022/07/21 06:27:02;;;;;;;29.75;16.48;;;;;;;19.35;85.83;101528.72;5019795;28;20073;-73
2022/07/21 06:29:27;;;;;;;30.45;17.58;;;;;;;19.41;86.14;101533.53;5022152;28;20025;-70
2022/07/21 06:31:52;;;;;;;34.63;18.25;;;;;;;19.46;84.84;101525.78;5025450;28;20029;-69
2022/07/21 06:34:18;;;;;;;32.45;18.95;;;;;;;19.49;85.03;101530.91;5025529;28;20532;-69
2022/07/21 06:36:43;;;;;;;30.48;17.25;;;;;;;19.51;85.00;101531.59;5028545;28;20029;-69
2022/07/21 06:39:12;;;;;;;30.92;18.33;;;;;;;19.53;85.27;101529.59;5026761;28;20034;-68
2022/07/21 06:41:37;;;;;;;31.93;17.07;;;;;;;19.54;84.65;101538.63;5020056;28;20148;-68
2022/07/21 06:44:05;;;;;;;31.75;18.90;;;;;;;19.53;83.96;101540.50;5024206;28;20136;-68
2022/07/21 06:46:30;;;;;;;29.90;16.70;;;;;;;19.55;84.05;101548.53;5018012;28;20551;-68
2022/07/21 06:48:55;;;;;;;34.00;18.38;;;;;;;19.56;84.56;101540.19;5015091;28;20025;-68
2022/07/21 06:51:21;;;;;;;31.05;20.05;;;;;;;19.58;84.89;101539.16;5014065;28;20361;-68
2022/07/21 06:53:46;;;;;;;31.48;17.67;;;;;;;19.59;84.71;101547.22;5025509;28;20065;-68
2022/07/21 06:56:11;;;;;;;31.27;17.13;;;;;;;19.62;84.78;101548.75;5022468;28;20461;-68
2022/07/21 06:58:36;;;;;;;29.20;17.10;;;;;;;19.63;84.92;101555.94;5031032;28;20037;-68
2022/07/21 07:01:02;;;;;;;30.83;16.60;;;;;;;19.65;83.99;101556.63;5034658;28;20025;-68
2022/07/21 07:03:27;;;;;;;32.83;17.27;;;;;;;19.62;83.65;101566.00;5034198;28;20025;-68
2022/07/21 07:05:53;;;;;;;30.40;16.83;;;;;;;19.62;83.87;101567.84;5034290;28;20030;-68
2022/07/21 07:08:18;;;;;;;32.67;18.13;;;;;;;19.57;83.62;101576.50;5034223;28;20030;-68
2022/07/21 07:10:45;;;;;;;28.50;16.58;;;;;;;19.52;83.64;101565.19;5034256;28;20034;-68
2022/07/21 07:13:13;;;;;;;30.27;16.60;;;;;;;19.49;84.58;101577.25;5033689;28;20021;-68
2022/07/21 07:15:38;;;;;;;29.85;17.58;;;;;;;19.46;84.00;101566.66;5033673;28;20033;-68
2022/07/21 07:18:04;;;;;;;31.02;18.52;;;;;;;19.41;83.82;101566.25;5026870;28;20029;-68
2022/07/21 07:20:29;;;;;;;29.92;17.83;;;;;;;19.41;85.34;101562.69;5028887;28;20466;-69
2022/07/21 07:22:54;;;;;;;28.13;16.88;;;;;;;19.38;84.59;101564.69;5028361;28;20100;-69
2022/07/21 07:25:19;;;;;;;32.70;15.82;;;;;;;19.39;84.46;101565.56;5031224;28;20041;-69
2022/07/21 07:27:47;;;;;;;33.45;17.33;;;;;;;19.41;85.16;101568.13;5032099;28;20037;-68
2022/07/21 07:30:13;;;;;;;31.65;16.52;;;;;;;19.40;84.96;101572.75;5038633;28;20026;-68
2022/07/21 07:32:40;;;;;;;27.73;16.25;;;;;;;19.41;84.86;101568.97;5041366;28;20040;-68
2022/07/21 07:35:07;;;;;;;31.90;18.02;;;;;;;19.40;85.96;101572.75;5039361;28;20116;-68
2022/07/21 07:37:34;;;;;;;28.50;16.95;;;;;;;19.37;87.09;101570.28;5030104;28;20493;-68
2022/07/21 07:39:59;;;;;;;29.83;16.13;;;;;;;19.31;88.00;101571.78;5028225;28;20025;-68
2022/07/21 07:42:25;;;;;;;31.05;15.40;;;;;;;19.28;89.10;101573.94;5035139;28;20028;-70
2022/07/21 07:44:50;;;;;;;27.45;16.23;;;;;;;19.24;90.66;101570.69;5026655;28;20512;-69
2022/07/21 07:47:15;;;;;;;28.20;14.20;;;;;;;19.13;89.81;101566.28;5027297;28;20033;-68
2022/07/21 07:49:40;;;;;;;29.60;15.63;;;;;;;19.07;90.52;101566.88;5028348;28;20082;-70
2022/07/21 07:52:06;;;;;;;29.80;15.02;;;;;;;19.04;91.31;101568.03;5027252;28;20505;-70
2022/07/21 07:54:31;;;;;;;25.10;14.07;;;;;;;18.99;92.27;101573.09;5037314;28;20142;-75
2022/07/21 07:56:56;;;;;;;24.00;11.07;;;;;;;18.92;91.69;101568.38;5028769;28;20060;-75
2022/07/21 07:59:22;;;;;;;21.25;9.90;;;;;;;18.85;92.45;101577.13;5027487;28;20025;-75
2022/07/21 08:01:47;;;;;;;22.13;10.85;;;;;;;18.79;93.26;101563.25;5028557;28;20037;-75
2022/07/21 08:04:14;;;;;;;24.80;10.98;;;;;;;18.75;92.68;101567.28;5028388;28;20017;-75
2022/07/21 08:06:39;;;;;;;20.85;9.88;;;;;;;18.69;93.84;101569.56;5030469;28;20035;-75
2022/07/21 08:09:05;;;;;;;25.10;10.18;;;;;;;18.69;93.48;101571.44;5028015;28;20021;-75
2022/07/21 08:11:30;;;;;;;22.77;10.63;;;;;;;18.70;94.46;101570.44;5025737;28;20029;-75
2022/07/21 08:13:55;;;;;;;20.75;8.52;;;;;;;18.67;94.14;101573.47;5030914;28;20433;-75
2022/07/21 08:16:21;;;;;;;20.23;8.73;;;;;;;18.63;93.78;101572.88;5029457;28;20052;-75
2022/07/21 08:18:46;;;;;;;21.63;8.40;;;;;;;18.64;94.50;101579.22;5023538;28;20026;-75
2022/07/21 08:21:11;;;;;;;20.77;8.45;;;;;;;18.62;94.14;101575.75;5024532;28;20436;-74
2022/07/21 08:23:37;;;;;;;19.60;8.70;;;;;;;18.64;95.56;101574.63;5028534;28;20511;-74
2022/07/21 08:26:02;;;;;;;23.27;8.73;;;;;;;18.65;95.59;101572.75;5028417;28;20111;-74
2022/07/21 08:28:28;;;;;;;19.05;7.57;;;;;;;18.65;95.98;101579.06;5023199;28;20021;-74
2022/07/21 08:30:54;;;;;;;20.27;8.25;;;;;;;18.66;95.58;101577.19;5031213;28;20378;-73
2022/07/21 08:33:19;;;;;;;21.20;8.80;;;;;;;18.67;95.35;101570.75;5032694;28;20060;-74
2022/07/21 08:35:44;;;;;;;20.42;8.23;;;;;;;18.68;96.10;101577.88;5031543;28;21403;-73
2022/07/21 08:38:11;;;;;;;21.30;8.07;;;;;;;18.70;97.07;101573.16;5030812;28;20366;-74
2022/07/21 08:40:43;;;;;;;19.30;8.07;;;;;;;18.71;96.69;101582.19;5027408;28;20079;-74
2022/07/21 08:43:12;;;;;;;20.70;8.73;;;;;;;18.70;97.06;101581.34;5029353;28;20490;-74
2022/07/21 08:45:37;;;;;;;23.50;9.40;;;;;;;18.69;95.94;101582.34;5033598;28;20025;-74
2022/07/21 08:48:03;;;;;;;20.25;8.77;;;;;;;18.73;97.53;101586.47;5028619;28;20033;-74
2022/07/21 08:50:31;;;;;;;20.35;8.52;;;;;;;18.72;97.29;101578.47;5027630;28;20053;-74
2022/07/21 08:52:56;;;;;;;23.73;9.63;;;;;;;18.75;97.30;101586.34;5028390;28;20437;-74
2022/07/21 08:55:22;;;;;;;21.85;10.27;;;;;;;18.73;96.90;101585.59;5029822;28;20116;-74
2022/07/21 08:57:47;;;;;;;21.45;10.20;;;;;;;18.72;96.46;101587.47;5026944;28;20041;-74
2022/07/21 09:00:13;;;;;;;19.77;8.77;;;;;;;18.73;96.89;101586.47;5025335;28;20485;-74
2022/07/21 09:02:38;;;;;;;21.63;10.05;;;;;;;18.73;97.33;101589.22;5028607;28;20560;-74
2022/07/21 09:05:07;;;;;;;20.48;9.30;;;;;;;18.75;97.57;101589.91;5031009;28;20053;-74
2022/07/21 09:07:54;;;;;;;20.05;8.85;;;;;;;18.79;96.97;101585.03;5030783;28;20033;-74
2022/07/21 09:10:26;;;;;;;20.00;7.93;;;;;;;18.82;97.40;101576.56;5026787;28;20013;-74
2022/07/21 09:13:00;;;;;;;19.45;9.15;;;;;;;18.86;98.29;101580.75;5032324;28;20040;-74
2022/07/21 09:15:27;;;;;;;19.30;9.45;;;;;;;18.88;98.11;101580.59;5028204;28;20025;-75
2022/07/21 09:18:09;;;;;;;20.63;8.60;;;;;;;18.92;97.67;101587.44;5028352;28;20401;-75
2022/07/21 09:20:35;;;;;;;19.83;9.15;;;;;;;18.94;97.89;101588.16;5029649;28;20083;-75
2022/07/21 09:23:13;;;;;;;19.23;8.25;;;;;;;18.98;97.47;101595.88;5026189;28;20052;-75
2022/07/21 09:25:48;;;;;;;20.08;9.00;;;;;;;18.95;96.13;101600.78;5029641;28;20127;-75
2022/07/21 09:28:18;;;;;;;20.70;9.13;;;;;;;18.95;96.20;101598.06;5026524;28;20039;-75
2022/07/21 09:30:56;;;;;;;18.80;8.38;;;;;;;18.91;95.79;101604.81;5028583;28;20084;-74
2022/07/21 09:33:44;;;;;;;19.48;8.02;;;;;;;18.86;95.46;101603.38;5024795;28;20488;-74
2022/07/21 09:36:19;;;;;;;18.23;8.20;;;;;;;18.85;96.24;101609.78;5048566;28;20035;-74
2022/07/21 09:38:51;;;;;;;19.92;6.90;;;;;;;18.81;95.67;101611.09;5030168;28;20029;-75
2022/07/21 09:41:18;;;;;;;18.50;7.13;;;;;;;18.79;96.82;101610.41;5029538;28;20018;-74
2022/07/21 09:43:47;;;;;;;17.55;7.13;;;;;;;18.76;96.86;101623.47;5035910;28;20025;-74
2022/07/21 09:46:19;;;;;;;14.23;6.07;;;;;;;18.68;96.11;101616.00;5034491;28;20508;-74
2022/07/21 09:48:47;;;;;;;16.20;5.95;;;;;;;18.59;94.87;101609.56;5028037;28;20079;-74
2022/07/21 09:51:37;;;;;;;14.40;5.85;;;;;;;18.58;95.21;101623.34;5028111;28;20025;-74
2022/07/21 09:54:04;;;;;;;16.73;6.78;;;;;;;18.57;96.59;101621.63;5028759;28;20108;-74
2022/07/21 09:56:32;;;;;;;14.85;5.45;;;;;;;18.47;95.58;101625.22;5030199;28;20466;-74
2022/07/21 09:59:00;;;;;;;14.80;5.95;;;;;;;18.39;95.46;101614.22;5030450;28;20032;-74
2022/07/21 10:01:27;;;;;;;15.32;6.07;;;;;;;18.34;96.33;101627.38;5027152;28;20487;-74
2022/07/21 10:03:53;;;;;;;15.90;6.57;;;;;;;18.34;97.36;101630.94;5031440;28;20109;-74
2022/07/21 10:06:23;;;;;;;17.98;7.35;;;;;;;18.31;97.49;101627.69;5028394;28;20061;-74
2022/07/21 10:08:49;;;;;;;18.27;7.32;;;;;;;18.29;97.09;101635.13;5028353;28;20022;-75
2022/07/21 10:11:14;;;;;;;17.20;7.05;;;;;;;18.32;97.92;101643.00;5025500;28;20079;-75
2022/07/21 10:13:40;;;;;;;17.48;7.18;;;;;;;18.33;97.72;101637.44;5027732;28;20037;-76
2022/07/21 10:16:09;;;;;;;18.17;6.95;;;;;;;18.35;97.90;101642.72;5028653;28;20473;-75
2022/07/21 10:18:39;;;;;;;17.95;7.07;;;;;;;18.37;96.39;101640.69;5027688;28;20032;-75
2022/07/21 10:21:15;;;;;;;19.13;7.65;;;;;;;18.41;97.19;101647.56;5026714;28;20021;-75
2022/07/21 10:23:42;;;;;;;19.55;8.95;;;;;;;18.49;97.91;101655.91;5028437;28;20047;-75
2022/07/21 10:26:09;;;;;;;18.83;8.40;;;;;;;18.52;98.91;101650.16;5032669;28;20049;-75
2022/07/21 10:28:35;;;;;;;18.20;7.40;;;;;;;18.51;96.78;101653.88;5027966;28;20041;-74
2022/07/21 10:31:16;;;;;;;19.85;8.23;;;;;;;18.60;98.53;101651.28;5028133;28;20032;-75
2022/07/21 10:33:44;;;;;;;19.75;8.88;;;;;;;18.57;96.68;101657.88;5025163;28;20029;-75
2022/07/21 10:36:31;;;;;;;19.73;9.00;;;;;;;18.65;99.00;101655.31;5030586;28;20505;-75
2022/07/21 10:39:08;;;;;;;20.60;9.32;;;;;;;18.68;97.59;101665.00;5026193;28;20485;-75
2022/07/21 10:41:39;;;;;;;25.60;9.82;;;;;;;18.65;95.53;101659.88;5029372;28;20053;-75
2022/07/21 10:44:26;;;;;;;20.90;9.05;;;;;;;18.66;95.27;101664.31;5028518;28;20481;-75
2022/07/21 10:47:13;;;;;;;22.00;9.70;;;;;;;18.59;95.39;101671.34;5029714;28;20056;-75
2022/07/21 10:49:47;;;;;;;18.63;7.40;;;;;;;18.54;94.81;101676.34;5025481;28;20040;-75
2022/07/21 10:52:34;;;;;;;19.33;7.95;;;;;;;18.46;94.86;101674.34;5027790;28;20868;-75
2022/07/21 10:55:23;;;;;;;19.13;7.55;;;;;;;18.40;95.32;101667.63;5028089;28;20026;-75
2022/07/21 10:58:10;;;;;;;20.10;8.68;;;;;;;18.34;95.27;101676.38;5028831;28;20034;-75
2022/07/21 11:00:36;;;;;;;19.27;8.20;;;;;;;18.24;95.27;101672.78;5025595;28;20049;-75
2022/07/21 11:03:20;;;;;;;17.63;7.03;;;;;;;18.25;96.12;101669.91;5032577;28;20452;-75
2022/07/21 11:06:15;;;;;;;18.67;8.02;;;;;;;18.26;95.39;101673.50;5028954;28;20065;-74
2022/07/21 11:08:42;;;;;;;17.40;7.88;;;;;;;18.27;96.41;101683.38;5029083;28;20017;-76
2022/07/21 11:11:16;;;;;;;19.30;9.18;;;;;;;18.28;96.69;101677.78;5028160;28;20040;-74
2022/07/21 11:14:09;;;;;;;21.20;9.32;;;;;;;18.31;95.46;101673.94;5027768;28;20056;-74